sensor_id;sensor_type;location;lat;lon;timestamp;pressure;altitude;pressure_sealevel;temperature;humidity
48027;BME280;50714;49.208;5.364;2023-07-09T00:07:14;99600.31;;;22.86;62.17
48027;BME280;50714;49.208;5.364;2023-07-09T00:17:28;99600.09;;;22.67;62.60
48027;BME280;50714;49.208;5.364;2023-07-09T00:27:30;99603.44;;;22.44;60.80
48027;BME280;50714;49.208;5.364;2023-07-09T00:37:31;99604.28;;;22.39;61.64
48027;BME280;50714;49.208;5.364;2023-07-09T00:48:01;99608.13;;;22.28;64.96
48027;BME280;50714;49.208;5.364;2023-07-09T00:58:05;99610.06;;;22.23;62.58
48027;BME280;50714;49.208;5.364;2023-07-09T01:08:07;99612.03;;;22.17;62.85
48027;BME280;50714;49.208;5.364;2023-07-09T01:18:09;99617.78;;;22.10;63.46
48027;BME280;50714;49.208;5.364;2023-07-09T01:28:10;99619.44;;;22.01;64.13
48027;BME280;50714;49.208;5.364;2023-07-09T01:38:11;99615.00;;;21.85;64.57
48027;BME280;50714;49.208;5.364;2023-07-09T01:48:11;99626.25;;;21.78;65.63
48027;BME280;50714;49.208;5.364;2023-07-09T01:58:16;99624.88;;;21.76;66.00
48027;BME280;50714;49.208;5.364;2023-07-09T02:08:17;99625.44;;;21.68;65.59
48027;BME280;50714;49.208;5.364;2023-07-09T02:18:17;99633.09;;;21.56;65.87
48027;BME280;50714;49.208;5.364;2023-07-09T02:28:17;99641.31;;;21.51;65.58
48027;BME280;50714;49.208;5.364;2023-07-09T02:38:18;99634.72;;;21.41;66.06
48027;BME280;50714;49.208;5.364;2023-07-09T02:48:18;99641.28;;;21.30;66.65
48027;BME280;50714;49.208;5.364;2023-07-09T02:58:18;99659.38;;;21.21;67.38
48027;BME280;50714;49.208;5.364;2023-07-09T03:08:19;99654.66;;;21.17;67.15
48027;BME280;50714;49.208;5.364;2023-07-09T03:18:19;99663.09;;;21.05;67.61
48027;BME280;50714;49.208;5.364;2023-07-09T03:28:19;99668.59;;;21.00;68.25
48027;BME280;50714;49.208;5.364;2023-07-09T03:38:20;99676.25;;;20.93;68.65
48027;BME280;50714;49.208;5.364;2023-07-09T03:48:20;99677.31;;;20.92;69.22
48027;BME280;50714;49.208;5.364;2023-07-09T03:58:24;99683.88;;;20.86;69.51
48027;BME280;50714;49.208;5.364;2023-07-09T04:08:25;99687.44;;;20.86;69.34
48027;BME280;50714;49.208;5.364;2023-07-09T04:18:25;99684.41;;;20.77;69.77
48027;BME280;50714;49.208;5.364;2023-07-09T04:28:26;99672.84;;;20.75;70.14
48027;BME280;50714;49.208;5.364;2023-07-09T04:38:26;99670.94;;;20.81;70.73
48027;BME280;50714;49.208;5.364;2023-07-09T04:48:26;99666.91;;;20.94;71.51
48027;BME280;50714;49.208;5.364;2023-07-09T04:58:27;99663.38;;;21.03;71.52
48027;BME280;50714;49.208;5.364;2023-07-09T05:08:27;99668.13;;;21.18;71.66
48027;BME280;50714;49.208;5.364;2023-07-09T05:18:27;99664.94;;;21.41;71.72
48027;BME280;50714;49.208;5.364;2023-07-09T05:28:28;99658.69;;;21.76;70.95
48027;BME280;50714;49.208;5.364;2023-07-09T05:38:29;99668.63;;;22.08;70.35
48027;BME280;50714;49.208;5.364;2023-07-09T05:48:30;99673.03;;;22.34;70.24
48027;BME280;50714;49.208;5.364;2023-07-09T05:58:30;99665.56;;;22.60;70.07
48027;BME280;50714;49.208;5.364;2023-07-09T06:08:31;99658.63;;;22.93;69.02
48027;BME280;50714;49.208;5.364;2023-07-09T06:18:32;99670.88;;;23.26;67.57
48027;BME280;50714;49.208;5.364;2023-07-09T06:28:33;99662.72;;;23.65;66.89
48027;BME280;50714;49.208;5.364;2023-07-09T06:38:34;99665.19;;;24.06;65.37
48027;BME280;50714;49.208;5.364;2023-07-09T06:48:34;99657.78;;;24.35;64.89
48027;BME280;50714;49.208;5.364;2023-07-09T06:58:36;99678.69;;;24.70;63.97
48027;BME280;50714;49.208;5.364;2023-07-09T07:08:36;99676.63;;;25.10;63.47
48027;BME280;50714;49.208;5.364;2023-07-09T07:18:37;99674.91;;;25.57;63.33
48027;BME280;50714;49.208;5.364;2023-07-09T07:28:38;99674.44;;;26.25;61.31
48027;BME280;50714;49.208;5.364;2023-07-09T07:38:38;99671.81;;;26.79;59.71
48027;BME280;50714;49.208;5.364;2023-07-09T07:48:38;99672.81;;;27.16;59.05
48027;BME280;50714;49.208;5.364;2023-07-09T07:58:39;99663.25;;;27.36;57.99
48027;BME280;50714;49.208;5.364;2023-07-09T08:08:39;99659.50;;;27.40;57.42
48027;BME280;50714;49.208;5.364;2023-07-09T08:18:39;99644.72;;;27.45;57.66
48027;BME280;50714;49.208;5.364;2023-07-09T08:28:40;99645.63;;;27.68;57.79
48027;BME280;50714;49.208;5.364;2023-07-09T08:38:40;99625.69;;;28.24;56.74
48027;BME280;50714;49.208;5.364;2023-07-09T08:48:44;99617.25;;;28.38;56.36
48027;BME280;50714;49.208;5.364;2023-07-09T08:58:46;99616.53;;;28.24;56.73
48027;BME280;50714;49.208;5.364;2023-07-09T09:18:57;99610.63;;;28.78;55.43
48027;BME280;50714;49.208;5.364;2023-07-09T09:28:58;99609.31;;;29.24;55.83
48027;BME280;50714;49.208;5.364;2023-07-09T09:39:01;99593.91;;;30.39;53.14
48027;BME280;50714;49.208;5.364;2023-07-09T09:49:02;99606.78;;;30.69;52.62
48027;BME280;50714;49.208;5.364;2023-07-09T09:59:13;99605.59;;;31.08;49.03
48027;BME280;50714;49.208;5.364;2023-07-09T10:09:42;99598.78;;;31.47;48.66
48027;BME280;50714;49.208;5.364;2023-07-09T10:19:56;99597.88;;;31.97;47.84
48027;BME280;50714;49.208;5.364;2023-07-09T10:40:16;99607.97;;;31.48;45.52
48027;BME280;50714;49.208;5.364;2023-07-09T10:50:30;99624.75;;;30.72;43.86
48027;BME280;50714;49.208;5.364;2023-07-09T11:00:38;99633.75;;;30.13;46.37
48027;BME280;50714;49.208;5.364;2023-07-09T11:11:14;99638.47;;;29.61;47.51
48027;BME280;50714;49.208;5.364;2023-07-09T11:21:17;99645.75;;;29.31;48.59
48027;BME280;50714;49.208;5.364;2023-07-09T11:31:31;99663.34;;;29.01;48.82
48027;BME280;50714;49.208;5.364;2023-07-09T11:41:39;99656.66;;;28.71;50.08
48027;BME280;50714;49.208;5.364;2023-07-09T11:51:49;99690.06;;;28.35;51.73
48027;BME280;50714;49.208;5.364;2023-07-09T12:01:52;99739.94;;;28.04;52.29
48027;BME280;50714;49.208;5.364;2023-07-09T12:11:54;99910.53;;;27.46;56.61
48027;BME280;50714;49.208;5.364;2023-07-09T12:21:57;99909.41;;;26.45;59.52
48027;BME280;50714;49.208;5.364;2023-07-09T12:31:58;99916.38;;;25.71;60.97
48027;BME280;50714;49.208;5.364;2023-07-09T12:42:01;99904.94;;;25.20;62.88
48027;BME280;50714;49.208;5.364;2023-07-09T12:52:03;99832.88;;;24.82;65.32
48027;BME280;50714;49.208;5.364;2023-07-09T13:02:29;99809.88;;;24.58;71.66
48027;BME280;50714;49.208;5.364;2023-07-09T13:12:31;99737.38;;;24.52;68.31
48027;BME280;50714;49.208;5.364;2023-07-09T13:22:32;99696.69;;;24.34;68.13
48027;BME280;50714;49.208;5.364;2023-07-09T13:32:32;99686.34;;;24.50;68.34
48027;BME280;50714;49.208;5.364;2023-07-09T13:42:33;99657.44;;;25.00;67.61
48027;BME280;50714;49.208;5.364;2023-07-09T13:52:34;99632.63;;;25.37;66.92
48027;BME280;50714;49.208;5.364;2023-07-09T14:02:35;99638.69;;;25.39;67.59
48027;BME280;50714;49.208;5.364;2023-07-09T14:12:37;99639.16;;;25.65;68.42
48027;BME280;50714;49.208;5.364;2023-07-09T14:22:39;99621.53;;;26.12;68.57
48027;BME280;50714;49.208;5.364;2023-07-09T14:32:43;99611.69;;;26.39;67.47
48027;BME280;50714;49.208;5.364;2023-07-09T14:42:45;99604.63;;;26.46;66.87
48027;BME280;50714;49.208;5.364;2023-07-09T14:52:47;99592.13;;;26.49;67.26
48027;BME280;50714;49.208;5.364;2023-07-09T15:02:50;99581.16;;;26.71;67.48
48027;BME280;50714;49.208;5.364;2023-07-09T15:12:53;99584.56;;;26.68;67.76
48027;BME280;50714;49.208;5.364;2023-07-09T15:22:55;99596.56;;;26.64;67.18
48027;BME280;50714;49.208;5.364;2023-07-09T15:32:59;99597.97;;;26.61;66.58
48027;BME280;50714;49.208;5.364;2023-07-09T15:43:07;99603.22;;;26.63;67.01
48027;BME280;50714;49.208;5.364;2023-07-09T15:53:10;99597.25;;;26.83;66.13
48027;BME280;50714;49.208;5.364;2023-07-09T16:03:10;99593.78;;;26.91;65.57
48027;BME280;50714;49.208;5.364;2023-07-09T16:13:19;99596.13;;;26.84;65.92
48027;BME280;50714;49.208;5.364;2023-07-09T16:23:21;99592.34;;;26.80;65.25
48027;BME280;50714;49.208;5.364;2023-07-09T16:33:23;99592.84;;;26.82;64.84
48027;BME280;50714;49.208;5.364;2023-07-09T16:43:23;99593.38;;;26.84;64.81
48027;BME280;50714;49.208;5.364;2023-07-09T16:53:23;99592.03;;;26.81;65.08
48027;BME280;50714;49.208;5.364;2023-07-09T17:03:25;99587.94;;;26.79;65.94
48027;BME280;50714;49.208;5.364;2023-07-09T17:13:27;99581.66;;;26.73;65.63
48027;BME280;50714;49.208;5.364;2023-07-09T17:23:27;99572.16;;;26.66;65.53
48027;BME280;50714;49.208;5.364;2023-07-09T17:33:30;99591.63;;;26.61;66.41
48027;BME280;50714;49.208;5.364;2023-07-09T17:43:31;99600.53;;;26.58;66.73
48027;BME280;50714;49.208;5.364;2023-07-09T17:53:34;99620.53;;;26.55;68.31
48027;BME280;50714;49.208;5.364;2023-07-09T18:03:36;99653.81;;;26.49;68.86
48027;BME280;50714;49.208;5.364;2023-07-09T18:13:36;99661.22;;;26.40;69.28
48027;BME280;50714;49.208;5.364;2023-07-09T18:23:37;99672.34;;;26.35;69.81
48027;BME280;50714;49.208;5.364;2023-07-09T18:33:37;99663.97;;;26.40;70.60
48027;BME280;50714;49.208;5.364;2023-07-09T18:43:38;99676.78;;;26.36;70.17
48027;BME280;50714;49.208;5.364;2023-07-09T18:53:38;99684.69;;;26.24;70.00
48027;BME280;50714;49.208;5.364;2023-07-09T19:03:38;99686.88;;;26.08;70.31
48027;BME280;50714;49.208;5.364;2023-07-09T19:13:39;99703.66;;;25.98;71.07
48027;BME280;50714;49.208;5.364;2023-07-09T19:23:40;99703.50;;;25.90;71.66
48027;BME280;50714;49.208;5.364;2023-07-09T19:33:41;99707.50;;;25.78;72.12
48027;BME280;50714;49.208;5.364;2023-07-09T19:43:41;99724.31;;;25.63;72.44
48027;BME280;50714;49.208;5.364;2023-07-09T19:53:42;99720.34;;;25.51;73.36
48027;BME280;50714;49.208;5.364;2023-07-09T20:03:42;99733.78;;;25.33;73.64
48027;BME280;50714;49.208;5.364;2023-07-09T20:13:42;99733.16;;;25.18;74.80
48027;BME280;50714;49.208;5.364;2023-07-09T20:23:43;99737.50;;;25.00;75.06
48027;BME280;50714;49.208;5.364;2023-07-09T20:33:43;99728.78;;;24.82;75.46
48027;BME280;50714;49.208;5.364;2023-07-09T20:43:43;99730.59;;;24.68;76.03
48027;BME280;50714;49.208;5.364;2023-07-09T20:53:44;99726.38;;;24.47;76.11
48027;BME280;50714;49.208;5.364;2023-07-09T21:03:44;99722.97;;;24.21;76.26
48027;BME280;50714;49.208;5.364;2023-07-09T21:13:44;99730.81;;;24.04;77.04
48027;BME280;50714;49.208;5.364;2023-07-09T21:23:45;99735.03;;;23.91;77.64
48027;BME280;50714;49.208;5.364;2023-07-09T21:33:45;99741.72;;;23.80;78.42
48027;BME280;50714;49.208;5.364;2023-07-09T21:43:46;99750.03;;;23.70;79.08
48027;BME280;50714;49.208;5.364;2023-07-09T21:53:46;99755.63;;;23.55;80.24
48027;BME280;50714;49.208;5.364;2023-07-09T22:03:47;99759.22;;;23.45;80.45
48027;BME280;50714;49.208;5.364;2023-07-09T22:13:48;99762.31;;;23.33;81.31
48027;BME280;50714;49.208;5.364;2023-07-09T22:23:51;99767.00;;;23.23;81.69
48027;BME280;50714;49.208;5.364;2023-07-09T22:33:54;99756.84;;;23.13;81.81
48027;BME280;50714;49.208;5.364;2023-07-09T22:43:54;99762.94;;;23.05;82.09
48027;BME280;50714;49.208;5.364;2023-07-09T22:53:55;99778.91;;;22.93;82.55
48027;BME280;50714;49.208;5.364;2023-07-09T23:03:55;99779.75;;;22.83;83.44
48027;BME280;50714;49.208;5.364;2023-07-09T23:13:56;99783.56;;;22.77;83.48
48027;BME280;50714;49.208;5.364;2023-07-09T23:23:57;99801.19;;;22.66;83.51
48027;BME280;50714;49.208;5.364;2023-07-09T23:33:59;99811.34;;;22.50;83.16
48027;BME280;50714;49.208;5.364;2023-07-09T23:44:01;99809.16;;;22.37;83.56
48027;BME280;50714;49.208;5.364;2023-07-09T23:54:02;99805.28;;;22.33;83.31
